createdAt,value
2018-07-03T00:00:43.363Z,1017.1
2018-07-03T00:01:33.572Z,1017.09
2018-07-03T00:02:33.406Z,1017.13
2018-07-03T00:03:33.565Z,1017.13
2018-07-03T00:04:33.341Z,1017.14
2018-07-03T00:05:33.380Z,1017.09
2018-07-03T00:06:33.438Z,1017.1
2018-07-03T00:07:33.577Z,1017.08
2018-07-03T00:08:33.529Z,1017.06
2018-07-03T00:09:33.341Z,1017.11
2018-07-03T00:10:33.655Z,1017.07
2018-07-03T00:11:33.409Z,1017.1
2018-07-03T00:12:33.444Z,1017.06
2018-07-03T00:13:33.443Z,1017.03
2018-07-03T00:14:33.313Z,1017.06
2018-07-03T00:15:33.440Z,1017.04
2018-07-03T00:16:33.331Z,1017.08
2018-07-03T00:17:33.399Z,1017.11
2018-07-03T00:18:33.441Z,1017.08
2018-07-03T00:19:33.568Z,1017.09
2018-07-03T00:20:33.581Z,1017.06
2018-07-03T00:21:33.469Z,1017.09
2018-07-03T00:22:33.473Z,1017.11
2018-07-03T00:23:33.293Z,1017.11
2018-07-03T00:24:33.351Z,1017.06
2018-07-03T00:25:33.496Z,1017.06
2018-07-03T00:26:33.420Z,1017.07
2018-07-03T00:27:33.406Z,1017.1
2018-07-03T00:28:33.265Z,1017.11
2018-07-03T00:29:33.483Z,1017.09
2018-07-03T00:30:33.497Z,1017.13
2018-07-03T00:31:33.512Z,1017.1
2018-07-03T00:32:33.285Z,1017.14
2018-07-03T00:33:33.347Z,1017.15
2018-07-03T00:34:33.713Z,1017.14
2018-07-03T00:35:33.472Z,1017.11
2018-07-03T00:36:33.384Z,1017.16
2018-07-03T00:37:33.577Z,1017.11
2018-07-03T00:38:33.517Z,1017.13
2018-07-03T00:39:33.478Z,1017.13
2018-07-03T00:40:33.418Z,1017.13
2018-07-03T00:41:33.543Z,1017.14
2018-07-03T00:42:33.431Z,1017.15
2018-07-03T00:43:33.266Z,1017.15
2018-07-03T00:44:33.299Z,1017.14
2018-07-03T00:45:33.417Z,1017.17
2018-07-03T00:46:33.487Z,1017.15
2018-07-03T00:47:33.350Z,1017.15
2018-07-03T00:48:33.670Z,1017.13
2018-07-03T00:49:33.520Z,1017.16
2018-07-03T00:50:33.664Z,1017.12
2018-07-03T00:51:33.341Z,1017.1
2018-07-03T00:52:33.349Z,1017.12
2018-07-03T00:53:33.354Z,1017.15
2018-07-03T00:54:33.325Z,1017.14
2018-07-03T00:55:33.527Z,1017.13
2018-07-03T00:56:33.402Z,1017.1
2018-07-03T00:57:33.550Z,1017.11
2018-07-03T00:58:33.431Z,1017.11
2018-07-03T00:59:33.404Z,1017.12
2018-07-03T01:00:33.362Z,1017.08
2018-07-03T01:01:33.494Z,1017.1
2018-07-03T01:02:33.545Z,1017
2018-07-03T01:03:33.293Z,1017.01
2018-07-03T01:04:33.471Z,1017.03
2018-07-03T01:05:33.440Z,1017.04
2018-07-03T01:06:33.320Z,1017.03
2018-07-03T01:07:33.490Z,1017.03
2018-07-03T01:08:33.322Z,1017.04
2018-07-03T01:09:33.493Z,1017.06
2018-07-03T01:10:33.302Z,1017.06
2018-07-03T01:11:33.273Z,1017.02
2018-07-03T01:12:33.319Z,1016.99
2018-07-03T01:13:33.295Z,1016.97
2018-07-03T01:14:33.328Z,1016.97
2018-07-03T01:15:33.464Z,1016.91
2018-07-03T01:16:33.387Z,1016.86
2018-07-03T01:17:33.423Z,1016.82
2018-07-03T01:18:33.508Z,1016.84
2018-07-03T01:19:33.477Z,1016.85
2018-07-03T01:20:33.329Z,1016.86
2018-07-03T01:21:33.301Z,1016.84
2018-07-03T01:22:33.415Z,1016.82
2018-07-03T01:23:33.477Z,1016.8
2018-07-03T01:24:33.477Z,1016.82
2018-07-03T01:25:33.632Z,1016.82
2018-07-03T01:26:33.627Z,1016.83
2018-07-03T01:27:33.611Z,1016.84
2018-07-03T01:28:33.418Z,1016.82
2018-07-03T01:29:33.324Z,1016.84
2018-07-03T01:30:33.452Z,1016.81
2018-07-03T01:31:33.374Z,1016.84
2018-07-03T01:32:33.278Z,1016.83
2018-07-03T01:33:33.298Z,1016.84
2018-07-03T01:34:33.262Z,1016.83
2018-07-03T01:35:33.303Z,1016.82
2018-07-03T01:36:33.622Z,1016.84
2018-07-03T01:37:33.416Z,1016.9
2018-07-03T01:38:33.564Z,1016.89
2018-07-03T01:39:33.395Z,1016.9
2018-07-03T01:40:33.444Z,1016.91
2018-07-03T01:41:33.283Z,1016.92
2018-07-03T01:42:33.497Z,1016.92
2018-07-03T01:43:33.526Z,1016.98
2018-07-03T01:44:33.622Z,1016.94
2018-07-03T01:45:33.351Z,1016.98
2018-07-03T01:46:33.417Z,1016.98
2018-07-03T01:47:33.554Z,1016.98
2018-07-03T01:48:33.415Z,1016.97
2018-07-03T01:49:33.320Z,1017.02
2018-07-03T01:50:33.546Z,1017.01
2018-07-03T01:51:33.478Z,1016.97
2018-07-03T01:52:33.489Z,1017.04
2018-07-03T01:53:33.436Z,1017.03
2018-07-03T01:54:33.646Z,1017
2018-07-03T01:55:33.402Z,1017.05
2018-07-03T01:56:33.253Z,1017.02
2018-07-03T01:57:33.532Z,1017.06
2018-07-03T01:58:33.338Z,1017.01
2018-07-03T01:59:33.486Z,1017
2018-07-03T02:00:33.413Z,1017.04
2018-07-03T02:01:33.283Z,1017.04
2018-07-03T02:02:33.481Z,1017.01
2018-07-03T02:03:33.457Z,1017.06
2018-07-03T02:04:33.297Z,1017.04
2018-07-03T02:05:33.408Z,1016.98
2018-07-03T02:06:33.704Z,1017.01
2018-07-03T02:07:33.295Z,1017.04
2018-07-03T02:08:33.288Z,1017.05
2018-07-03T02:09:33.324Z,1016.99
2018-07-03T02:10:33.225Z,1017.02
2018-07-03T02:11:33.555Z,1017.05
2018-07-03T02:12:33.545Z,1017.06
2018-07-03T02:13:33.666Z,1017.04
2018-07-03T02:14:33.625Z,1017.05
2018-07-03T02:15:33.541Z,1017.05
2018-07-03T02:16:33.569Z,1017.02
2018-07-03T02:17:33.283Z,1017
2018-07-03T02:18:33.343Z,1016.97
2018-07-03T02:19:33.520Z,1016.94
2018-07-03T02:20:33.427Z,1016.98
2018-07-03T02:21:33.298Z,1016.98
2018-07-03T02:22:33.308Z,1016.98
2018-07-03T02:23:33.345Z,1017.02
2018-07-03T02:24:33.314Z,1017.02
2018-07-03T02:25:33.489Z,1017
2018-07-03T02:26:33.557Z,1017.01
2018-07-03T02:27:33.423Z,1016.98
2018-07-03T02:28:33.229Z,1017
2018-07-03T02:29:33.505Z,1016.91
2018-07-03T02:30:33.406Z,1016.93
2018-07-03T02:31:33.431Z,1016.97
2018-07-03T02:32:33.800Z,1016.96
2018-07-03T02:33:33.418Z,1016.96
2018-07-03T02:34:33.444Z,1016.95
2018-07-03T02:35:33.353Z,1016.96
2018-07-03T02:36:33.535Z,1016.97
2018-07-03T02:37:33.319Z,1016.92
2018-07-03T02:38:33.337Z,1016.95
2018-07-03T02:39:33.333Z,1016.97
2018-07-03T02:40:33.480Z,1016.93
2018-07-03T02:41:33.761Z,1016.95
2018-07-03T02:42:33.477Z,1016.93
2018-07-03T02:43:33.607Z,1016.95
2018-07-03T02:44:33.647Z,1016.93
2018-07-03T02:45:33.544Z,1016.99
2018-07-03T02:46:33.327Z,1016.92
2018-07-03T02:47:33.265Z,1016.91
2018-07-03T02:48:33.429Z,1016.98
2018-07-03T02:49:33.581Z,1016.95
2018-07-03T02:50:33.400Z,1016.93
2018-07-03T02:51:33.428Z,1016.93
2018-07-03T02:52:33.465Z,1016.92
2018-07-03T02:53:33.292Z,1016.91
2018-07-03T02:54:33.656Z,1016.92
2018-07-03T02:55:33.248Z,1016.94
2018-07-03T02:56:33.255Z,1016.97
2018-07-03T02:57:33.418Z,1016.98
2018-07-03T02:58:33.324Z,1016.99
2018-07-03T02:59:33.554Z,1016.99
2018-07-03T03:00:33.541Z,1017.02
2018-07-03T03:01:33.313Z,1017.01
2018-07-03T03:02:33.511Z,1016.99
2018-07-03T03:03:33.498Z,1017.04
2018-07-03T03:04:33.417Z,1017.1
2018-07-03T03:05:33.744Z,1017.08
2018-07-03T03:06:33.446Z,1017.09
2018-07-03T03:07:33.338Z,1017.04
2018-07-03T03:08:33.378Z,1017.06
2018-07-03T03:09:33.473Z,1017.08
2018-07-03T03:10:33.488Z,1017.09
2018-07-03T03:11:33.605Z,1017.08
2018-07-03T03:12:33.266Z,1017.08
2018-07-03T03:13:33.337Z,1017.13
2018-07-03T03:14:33.479Z,1017.14
2018-07-03T03:15:33.507Z,1017.18
2018-07-03T03:16:33.497Z,1017.19
2018-07-03T03:17:33.215Z,1017.19
2018-07-03T03:18:33.438Z,1017.23
2018-07-03T03:19:33.503Z,1017.19
2018-07-03T03:20:33.454Z,1017.18
2018-07-03T03:21:33.223Z,1017.2
2018-07-03T03:22:33.531Z,1017.25
2018-07-03T03:23:33.620Z,1017.28
2018-07-03T03:24:33.394Z,1017.34
2018-07-03T03:25:33.314Z,1017.31
2018-07-03T03:26:33.483Z,1017.38
2018-07-03T03:27:33.324Z,1017.39
2018-07-03T03:28:33.481Z,1017.39
2018-07-03T03:29:33.534Z,1017.41
2018-07-03T03:30:33.447Z,1017.46
2018-07-03T03:31:33.303Z,1017.47
2018-07-03T03:32:33.477Z,1017.45
2018-07-03T03:33:33.341Z,1017.49
2018-07-03T03:34:33.416Z,1017.5
2018-07-03T03:35:33.455Z,1017.49
2018-07-03T03:36:33.322Z,1017.48
2018-07-03T03:37:33.320Z,1017.47
2018-07-03T03:38:33.337Z,1017.48
2018-07-03T03:39:33.439Z,1017.46
2018-07-03T03:40:33.209Z,1017.52
2018-07-03T03:41:33.299Z,1017.55
2018-07-03T03:42:33.306Z,1017.58
2018-07-03T03:43:33.469Z,1017.6
2018-07-03T03:44:33.482Z,1017.62
2018-07-03T03:45:33.474Z,1017.62
2018-07-03T03:46:33.323Z,1017.58
2018-07-03T03:47:33.259Z,1017.63
2018-07-03T03:48:33.441Z,1017.66
2018-07-03T03:49:33.352Z,1017.63
2018-07-03T03:50:33.629Z,1017.66
2018-07-03T03:51:33.262Z,1017.67
2018-07-03T03:52:33.427Z,1017.64
2018-07-03T03:53:33.411Z,1017.61
2018-07-03T03:54:33.516Z,1017.61
2018-07-03T03:55:33.447Z,1017.63
2018-07-03T03:56:33.381Z,1017.62
2018-07-03T03:57:33.292Z,1017.63
2018-07-03T03:58:43.427Z,1017.66
2018-07-03T03:59:33.453Z,1017.64
2018-07-03T04:00:33.434Z,1017.67
2018-07-03T04:01:33.431Z,1017.68
2018-07-03T04:02:33.312Z,1017.69
2018-07-03T04:03:33.267Z,1017.67
2018-07-03T04:04:33.314Z,1017.73
2018-07-03T04:05:33.241Z,1017.74
2018-07-03T04:06:33.468Z,1017.76
2018-07-03T04:07:33.602Z,1017.75
2018-07-03T04:08:33.352Z,1017.77
2018-07-03T04:09:33.458Z,1017.81
2018-07-03T04:10:33.375Z,1017.8
2018-07-03T04:11:33.481Z,1017.85
2018-07-03T04:12:33.287Z,1017.84
2018-07-03T04:13:33.487Z,1017.84
2018-07-03T04:14:33.349Z,1017.84
2018-07-03T04:15:33.269Z,1017.88
2018-07-03T04:16:33.374Z,1017.91
2018-07-03T04:17:33.267Z,1017.97
2018-07-03T04:18:33.341Z,1017.95
2018-07-03T04:19:33.314Z,1017.98
2018-07-03T04:20:33.463Z,1017.98
2018-07-03T04:21:33.210Z,1017.95
2018-07-03T04:22:33.355Z,1017.95
2018-07-03T04:23:33.352Z,1017.97
2018-07-03T04:24:33.424Z,1017.89
2018-07-03T04:25:33.397Z,1017.99
2018-07-03T04:26:33.246Z,1017.98
2018-07-03T04:27:33.593Z,1017.93
2018-07-03T04:28:33.353Z,1017.89
2018-07-03T04:29:33.500Z,1017.89
2018-07-03T04:30:33.158Z,1017.88
2018-07-03T04:31:33.504Z,1017.95
2018-07-03T04:32:33.381Z,1017.9
2018-07-03T04:33:33.477Z,1017.88
2018-07-03T04:34:33.324Z,1017.9
2018-07-03T04:35:33.364Z,1017.91
2018-07-03T04:36:33.472Z,1017.87
2018-07-03T04:37:33.405Z,1017.84
2018-07-03T04:38:33.334Z,1017.83
2018-07-03T04:39:33.272Z,1017.82
2018-07-03T04:40:33.495Z,1017.79
2018-07-03T04:41:33.311Z,1017.8
2018-07-03T04:42:33.364Z,1017.83
2018-07-03T04:43:33.279Z,1017.82
2018-07-03T04:44:33.461Z,1017.83
2018-07-03T04:45:33.315Z,1017.82
2018-07-03T04:46:33.437Z,1017.8
2018-07-03T04:47:33.333Z,1017.84
2018-07-03T04:48:33.225Z,1017.84
2018-07-03T04:49:33.367Z,1017.79
2018-07-03T04:50:33.362Z,1017.83
2018-07-03T04:51:33.333Z,1017.82
2018-07-03T04:52:33.254Z,1017.78
2018-07-03T04:53:33.394Z,1017.84
2018-07-03T04:54:33.138Z,1017.79
2018-07-03T04:55:33.314Z,1017.77
2018-07-03T04:56:33.353Z,1017.73
2018-07-03T04:57:33.207Z,1017.74
2018-07-03T04:58:33.391Z,1017.73
2018-07-03T04:59:33.263Z,1017.65
2018-07-03T05:00:33.405Z,1017.68
2018-07-03T05:01:33.457Z,1017.68
2018-07-03T05:02:33.353Z,1017.67
2018-07-03T05:03:33.729Z,1017.68
2018-07-03T05:04:33.487Z,1017.77
2018-07-03T05:05:33.268Z,1017.72
2018-07-03T05:06:33.209Z,1017.73
2018-07-03T05:07:33.491Z,1017.75
2018-07-03T05:08:33.433Z,1017.72
2018-07-03T05:09:33.272Z,1017.77
2018-07-03T05:10:33.396Z,1017.78
2018-07-03T05:11:33.432Z,1017.79
2018-07-03T05:12:33.658Z,1017.8
2018-07-03T05:13:33.423Z,1017.83
2018-07-03T05:14:33.370Z,1017.82
2018-07-03T05:15:33.345Z,1017.82
2018-07-03T05:16:33.784Z,1017.86
2018-07-03T05:17:33.725Z,1017.88
2018-07-03T05:18:33.550Z,1017.82
2018-07-03T05:19:33.340Z,1017.85
2018-07-03T05:20:33.301Z,1017.85
2018-07-03T05:21:33.185Z,1017.84
2018-07-03T05:22:33.308Z,1017.84
2018-07-03T05:23:33.385Z,1017.84
2018-07-03T05:24:33.275Z,1017.86
2018-07-03T05:25:33.230Z,1017.85
2018-07-03T05:26:33.315Z,1017.83
2018-07-03T05:27:33.389Z,1017.86
2018-07-03T05:28:33.304Z,1017.83
2018-07-03T05:29:33.339Z,1017.86
2018-07-03T05:30:33.480Z,1017.85
2018-07-03T05:31:36.118Z,1017.89
2018-07-03T05:32:33.383Z,1017.92
2018-07-03T05:33:33.328Z,1017.93
2018-07-03T05:34:33.371Z,1017.96
2018-07-03T05:35:33.693Z,1017.95
2018-07-03T05:36:33.280Z,1017.96
2018-07-03T05:37:33.435Z,1017.95
2018-07-03T05:38:33.293Z,1017.97
2018-07-03T05:39:33.417Z,1017.98
2018-07-03T05:40:33.513Z,1017.99
2018-07-03T05:41:33.402Z,1017.99
2018-07-03T05:42:33.518Z,1018
2018-07-03T05:43:33.823Z,1017.96
2018-07-03T05:44:33.454Z,1017.95
2018-07-03T05:45:33.549Z,1017.99
2018-07-03T05:46:33.420Z,1017.95
2018-07-03T05:47:33.468Z,1018.02
2018-07-03T05:48:33.409Z,1018.02
2018-07-03T05:49:33.383Z,1018.03
2018-07-03T05:50:33.475Z,1018.03
2018-07-03T05:51:34.191Z,1018.05
2018-07-03T05:52:33.370Z,1018.06
2018-07-03T05:53:33.420Z,1018.08
2018-07-03T05:54:33.762Z,1018.06
2018-07-03T05:55:33.268Z,1018.12
2018-07-03T05:56:33.725Z,1018.12
2018-07-03T05:57:33.297Z,1018.1
2018-07-03T05:58:33.349Z,1018.12
2018-07-03T05:59:33.497Z,1018.09
2018-07-03T06:00:33.179Z,1018.13
2018-07-03T06:01:33.365Z,1018.17
2018-07-03T06:02:33.385Z,1018.2
2018-07-03T06:03:33.324Z,1018.18
2018-07-03T06:04:33.343Z,1018.23
2018-07-03T06:05:33.263Z,1018.2
2018-07-03T06:06:33.293Z,1018.24
2018-07-03T06:07:33.292Z,1018.24
2018-07-03T06:08:33.203Z,1018.28
2018-07-03T06:09:33.363Z,1018.28
2018-07-03T06:10:33.398Z,1018.31
2018-07-03T06:11:33.249Z,1018.25
2018-07-03T06:12:33.483Z,1018.29
2018-07-03T06:13:33.348Z,1018.28
2018-07-03T06:14:33.562Z,1018.29
2018-07-03T06:15:33.644Z,1018.31
2018-07-03T06:16:33.408Z,1018.28
2018-07-03T06:17:33.644Z,1018.29
2018-07-03T06:18:33.399Z,1018.31
2018-07-03T06:19:33.370Z,1018.33
2018-07-03T06:20:33.428Z,1018.34
2018-07-03T06:21:33.290Z,1018.33
2018-07-03T06:22:33.240Z,1018.31
2018-07-03T06:23:33.333Z,1018.33
2018-07-03T06:24:33.508Z,1018.28
2018-07-03T06:25:33.803Z,1018.34
2018-07-03T06:26:33.514Z,1018.28
2018-07-03T06:27:33.448Z,1018.29
2018-07-03T06:28:33.412Z,1018.29
2018-07-03T06:29:33.242Z,1018.3
2018-07-03T06:30:33.330Z,1018.31
2018-07-03T06:31:33.309Z,1018.32
2018-07-03T06:32:33.586Z,1018.36
2018-07-03T06:33:33.243Z,1018.39
2018-07-03T06:34:33.352Z,1018.39
2018-07-03T06:35:33.617Z,1018.37
2018-07-03T06:36:33.159Z,1018.37
2018-07-03T06:37:33.604Z,1018.41
2018-07-03T06:38:33.379Z,1018.38
2018-07-03T06:39:33.485Z,1018.38
2018-07-03T06:40:33.201Z,1018.36
2018-07-03T06:41:33.304Z,1018.38
2018-07-03T06:42:33.522Z,1018.37
2018-07-03T06:43:33.258Z,1018.39
2018-07-03T06:44:33.453Z,1018.42
2018-07-03T06:45:33.360Z,1018.41
2018-07-03T06:46:33.919Z,1018.42
2018-07-03T06:47:33.268Z,1018.39
2018-07-03T06:48:33.645Z,1018.38
2018-07-03T06:49:33.493Z,1018.44
2018-07-03T06:50:33.402Z,1018.39
2018-07-03T06:51:33.937Z,1018.43
2018-07-03T06:52:33.251Z,1018.39
2018-07-03T06:53:33.331Z,1018.38
2018-07-03T06:54:33.257Z,1018.37
2018-07-03T06:55:33.313Z,1018.38
2018-07-03T06:56:33.409Z,1018.37
2018-07-03T06:57:33.443Z,1018.39
2018-07-03T06:58:33.323Z,1018.37
2018-07-03T06:59:33.244Z,1018.38
2018-07-03T07:00:33.327Z,1018.44
2018-07-03T07:01:33.197Z,1018.42
2018-07-03T07:02:33.446Z,1018.4
2018-07-03T07:03:33.416Z,1018.4
2018-07-03T07:04:33.337Z,1018.39
2018-07-03T07:05:33.217Z,1018.34
2018-07-03T07:06:33.433Z,1018.36
2018-07-03T07:07:33.412Z,1018.37
2018-07-03T07:08:33.639Z,1018.39
2018-07-03T07:09:33.672Z,1018.37
2018-07-03T07:10:33.429Z,1018.37
2018-07-03T07:11:33.343Z,1018.36
2018-07-03T07:12:33.280Z,1018.36
2018-07-03T07:13:33.302Z,1018.38
2018-07-03T07:14:33.220Z,1018.37
2018-07-03T07:15:33.319Z,1018.39
2018-07-03T07:16:33.349Z,1018.39
2018-07-03T07:17:33.453Z,1018.41
2018-07-03T07:18:33.187Z,1018.35
2018-07-03T07:19:33.420Z,1018.34
2018-07-03T07:20:33.288Z,1018.33
2018-07-03T07:21:33.304Z,1018.35
2018-07-03T07:22:33.171Z,1018.32
2018-07-03T07:23:43.368Z,1018.36
2018-07-03T07:24:33.409Z,1018.36
2018-07-03T07:25:33.676Z,1018.38
2018-07-03T07:26:33.525Z,1018.39
2018-07-03T07:27:33.196Z,1018.38
2018-07-03T07:28:33.165Z,1018.35
2018-07-03T07:29:33.335Z,1018.37
2018-07-03T07:30:33.233Z,1018.39
2018-07-03T07:31:33.296Z,1018.37
2018-07-03T07:32:33.292Z,1018.34
2018-07-03T07:33:33.482Z,1018.38
2018-07-03T07:34:33.385Z,1018.38
2018-07-03T07:35:34.095Z,1018.32
2018-07-03T07:36:33.705Z,1018.35
2018-07-03T07:37:33.209Z,1018.37
2018-07-03T07:38:33.429Z,1018.39
2018-07-03T07:39:33.265Z,1018.4
2018-07-03T07:40:33.409Z,1018.41
2018-07-03T07:41:33.282Z,1018.39
2018-07-03T07:42:33.548Z,1018.39
2018-07-03T07:43:33.290Z,1018.41
2018-07-03T07:44:33.250Z,1018.39
2018-07-03T07:45:33.374Z,1018.35
2018-07-03T07:46:33.335Z,1018.35
2018-07-03T07:47:33.616Z,1018.35
2018-07-03T07:48:33.462Z,1018.29
2018-07-03T07:49:33.302Z,1018.31
2018-07-03T07:50:33.447Z,1018.27
2018-07-03T07:51:33.216Z,1018.28
2018-07-03T07:52:33.286Z,1018.28
2018-07-03T07:53:33.303Z,1018.3
2018-07-03T07:54:33.216Z,1018.34
2018-07-03T07:55:33.167Z,1018.37
2018-07-03T07:56:33.418Z,1018.34
2018-07-03T07:57:33.524Z,1018.31
2018-07-03T07:58:33.245Z,1018.33
2018-07-03T07:59:33.231Z,1018.28
2018-07-03T08:00:33.345Z,1018.34
2018-07-03T08:01:33.723Z,1018.33
2018-07-03T08:02:33.492Z,1018.29
2018-07-03T08:03:33.275Z,1018.31
2018-07-03T08:04:33.182Z,1018.27
2018-07-03T08:05:33.417Z,1018.26
2018-07-03T08:06:33.240Z,1018.31
2018-07-03T08:07:33.579Z,1018.32
2018-07-03T08:08:33.232Z,1018.33
2018-07-03T08:09:33.151Z,1018.31
2018-07-03T08:10:33.241Z,1018.38
2018-07-03T08:11:33.282Z,1018.4
2018-07-03T08:12:33.354Z,1018.39
2018-07-03T08:13:33.261Z,1018.43
2018-07-03T08:14:33.556Z,1018.38
2018-07-03T08:15:33.336Z,1018.39
2018-07-03T08:16:33.242Z,1018.41
2018-07-03T08:17:33.270Z,1018.41
2018-07-03T08:18:33.257Z,1018.47
2018-07-03T08:19:33.374Z,1018.48
2018-07-03T08:20:33.243Z,1018.46
2018-07-03T08:21:33.316Z,1018.5
2018-07-03T08:22:43.358Z,1018.52
2018-07-03T08:23:33.257Z,1018.51
2018-07-03T08:24:33.316Z,1018.5
2018-07-03T08:25:33.429Z,1018.48
2018-07-03T08:26:33.498Z,1018.53
2018-07-03T08:27:33.187Z,1018.52
2018-07-03T08:28:33.341Z,1018.54
2018-07-03T08:29:33.457Z,1018.55
2018-07-03T08:30:33.397Z,1018.54
2018-07-03T08:31:33.207Z,1018.53
2018-07-03T08:32:33.366Z,1018.51
2018-07-03T08:33:33.299Z,1018.5
2018-07-03T08:34:33.434Z,1018.48
2018-07-03T08:35:33.538Z,1018.49
2018-07-03T08:36:33.277Z,1018.48
2018-07-03T08:37:33.357Z,1018.45
2018-07-03T08:38:33.305Z,1018.46
2018-07-03T08:39:33.370Z,1018.46
2018-07-03T08:40:33.325Z,1018.47
2018-07-03T08:41:33.198Z,1018.5
2018-07-03T08:42:33.225Z,1018.47
2018-07-03T08:43:33.309Z,1018.47
2018-07-03T08:44:33.214Z,1018.47
2018-07-03T08:45:33.165Z,1018.45
2018-07-03T08:46:33.313Z,1018.46
2018-07-03T08:47:33.552Z,1018.52
2018-07-03T08:48:33.475Z,1018.49
2018-07-03T08:49:33.340Z,1018.51
2018-07-03T08:50:33.274Z,1018.5
2018-07-03T08:51:33.491Z,1018.47
2018-07-03T08:52:33.402Z,1018.48
2018-07-03T08:53:33.278Z,1018.47
2018-07-03T08:54:33.182Z,1018.47
2018-07-03T08:55:33.347Z,1018.49
2018-07-03T08:56:33.341Z,1018.48
2018-07-03T08:57:33.395Z,1018.44
2018-07-03T08:58:33.223Z,1018.48
2018-07-03T08:59:33.278Z,1018.47
2018-07-03T09:00:33.464Z,1018.39
2018-07-03T09:01:33.355Z,1018.42
2018-07-03T09:02:33.223Z,1018.38
2018-07-03T09:03:33.154Z,1018.42
2018-07-03T09:04:33.274Z,1018.41
2018-07-03T09:05:33.351Z,1018.36
2018-07-03T09:06:33.282Z,1018.42
2018-07-03T09:07:33.360Z,1018.42
2018-07-03T09:08:33.234Z,1018.36
2018-07-03T09:09:33.247Z,1018.39
2018-07-03T09:10:33.148Z,1018.36
2018-07-03T09:11:33.404Z,1018.37
2018-07-03T09:12:33.179Z,1018.4
2018-07-03T09:13:33.394Z,1018.33
2018-07-03T09:14:33.365Z,1018.37
2018-07-03T09:15:33.274Z,1018.4
2018-07-03T09:16:33.164Z,1018.38
2018-07-03T09:17:33.252Z,1018.32
2018-07-03T09:18:33.391Z,1018.35
2018-07-03T09:19:33.231Z,1018.33
2018-07-03T09:20:33.205Z,1018.3
2018-07-03T09:21:33.195Z,1018.27
2018-07-03T09:22:33.403Z,1018.34
2018-07-03T09:23:33.267Z,1018.3
2018-07-03T09:24:33.209Z,1018.3
2018-07-03T09:25:33.246Z,1018.32
2018-07-03T09:26:33.393Z,1018.29
2018-07-03T09:27:33.147Z,1018.29
2018-07-03T09:28:33.358Z,1018.32
2018-07-03T09:29:33.386Z,1018.29
2018-07-03T09:30:33.250Z,1018.34
2018-07-03T09:31:33.305Z,1018.38
2018-07-03T09:32:33.151Z,1018.41
2018-07-03T09:33:33.294Z,1018.34
2018-07-03T09:34:33.249Z,1018.4
2018-07-03T09:35:33.206Z,1018.36
2018-07-03T09:36:33.392Z,1018.38
2018-07-03T09:37:33.392Z,1018.37
2018-07-03T09:38:33.272Z,1018.36
2018-07-03T09:39:33.316Z,1018.33
2018-07-03T09:40:33.250Z,1018.32
2018-07-03T09:41:33.353Z,1018.34
2018-07-03T09:42:33.470Z,1018.36
2018-07-03T09:43:33.400Z,1018.37
2018-07-03T09:44:33.285Z,1018.38
2018-07-03T09:45:33.265Z,1018.39
2018-07-03T09:46:33.397Z,1018.45
2018-07-03T09:47:33.377Z,1018.43
2018-07-03T09:48:33.225Z,1018.42
2018-07-03T09:49:33.439Z,1018.42
2018-07-03T09:50:33.264Z,1018.38
2018-07-03T09:51:33.611Z,1018.37
2018-07-03T09:52:33.237Z,1018.36
2018-07-03T09:53:33.425Z,1018.38
2018-07-03T09:54:33.281Z,1018.4
2018-07-03T09:55:33.645Z,1018.39
2018-07-03T09:56:33.337Z,1018.41
2018-07-03T09:57:33.138Z,1018.41
2018-07-03T09:58:33.259Z,1018.4
2018-07-03T09:59:33.167Z,1018.44
2018-07-03T10:00:33.301Z,1018.42
2018-07-03T10:01:33.332Z,1018.44
2018-07-03T10:02:33.241Z,1018.45
2018-07-03T10:03:33.484Z,1018.46
2018-07-03T10:04:33.361Z,1018.43
2018-07-03T10:05:33.414Z,1018.45
2018-07-03T10:06:33.229Z,1018.45
2018-07-03T10:07:33.319Z,1018.43
2018-07-03T10:08:33.154Z,1018.41
2018-07-03T10:09:33.165Z,1018.44
2018-07-03T10:10:35.181Z,1018.49
2018-07-03T10:11:33.340Z,1018.5
2018-07-03T10:12:33.256Z,1018.43
2018-07-03T10:13:33.243Z,1018.46
2018-07-03T10:14:33.224Z,1018.46
2018-07-03T10:15:33.351Z,1018.44
2018-07-03T10:16:33.285Z,1018.45
2018-07-03T10:17:33.145Z,1018.44
2018-07-03T10:18:33.259Z,1018.42
2018-07-03T10:19:33.301Z,1018.45
2018-07-03T10:20:33.272Z,1018.48
2018-07-03T10:21:33.187Z,1018.46
2018-07-03T10:22:33.302Z,1018.47
2018-07-03T10:23:33.222Z,1018.46
2018-07-03T10:24:33.210Z,1018.45
2018-07-03T10:25:33.571Z,1018.44
2018-07-03T10:27:03.695Z,1018.43
2018-07-03T10:27:33.363Z,1018.45
2018-07-03T10:28:33.201Z,1018.42
2018-07-03T10:29:33.154Z,1018.46
2018-07-03T10:30:33.474Z,1018.41
2018-07-03T10:31:33.128Z,1018.41
2018-07-03T10:32:33.116Z,1018.43
2018-07-03T10:33:33.353Z,1018.41
2018-07-03T10:34:33.292Z,1018.41
2018-07-03T10:35:33.278Z,1018.41
2018-07-03T10:36:33.223Z,1018.38
2018-07-03T10:37:33.251Z,1018.34
2018-07-03T10:38:33.216Z,1018.35
2018-07-03T10:39:33.295Z,1018.32
2018-07-03T10:40:33.083Z,1018.37
2018-07-03T10:41:33.239Z,1018.3
2018-07-03T10:42:33.308Z,1018.31
2018-07-03T10:43:33.282Z,1018.25
2018-07-03T10:44:33.187Z,1018.26
2018-07-03T10:45:33.151Z,1018.34
2018-07-03T10:46:33.370Z,1018.31
2018-07-03T10:47:33.360Z,1018.31
2018-07-03T10:48:33.181Z,1018.29
2018-07-03T10:49:33.131Z,1018.27
2018-07-03T10:50:33.212Z,1018.29
2018-07-03T10:51:33.080Z,1018.29
2018-07-03T10:52:33.367Z,1018.27
2018-07-03T10:53:33.199Z,1018.28
2018-07-03T10:54:33.266Z,1018.27
2018-07-03T10:55:33.261Z,1018.28
2018-07-03T10:56:33.408Z,1018.3
2018-07-03T10:57:33.389Z,1018.24
2018-07-03T10:58:33.119Z,1018.15
2018-07-03T10:59:33.573Z,1018.16
2018-07-03T11:00:33.348Z,1018.19
2018-07-03T11:01:33.170Z,1018.2
2018-07-03T11:02:33.138Z,1018.24
2018-07-03T11:03:33.457Z,1018.17
2018-07-03T11:04:33.353Z,1018.14
2018-07-03T11:05:33.512Z,1018.19
2018-07-03T11:06:33.446Z,1018.1
2018-07-03T11:07:33.131Z,1018.14
2018-07-03T11:08:33.200Z,1018.12
2018-07-03T11:09:33.204Z,1018.11
2018-07-03T11:10:33.422Z,1018.09
2018-07-03T11:11:33.371Z,1018.07
2018-07-03T11:12:33.263Z,1018.07
2018-07-03T11:13:33.270Z,1018.08
2018-07-03T11:14:33.377Z,1018.09
2018-07-03T11:15:33.260Z,1018.12
2018-07-03T11:16:33.309Z,1018.1
2018-07-03T11:17:33.397Z,1018.06
2018-07-03T11:18:33.344Z,1018.09
2018-07-03T11:19:33.422Z,1018.06
2018-07-03T11:20:33.387Z,1018.05
2018-07-03T11:21:33.188Z,1018.02
2018-07-03T11:22:33.339Z,1018.03
2018-07-03T11:23:33.454Z,1018.04
2018-07-03T11:24:33.367Z,1018.02
2018-07-03T11:25:33.405Z,1018.03
2018-07-03T11:26:33.591Z,1018.02
2018-07-03T11:27:33.432Z,1017.97
2018-07-03T11:28:33.638Z,1017.94
2018-07-03T11:29:33.186Z,1017.94
2018-07-03T11:30:33.421Z,1017.95
2018-07-03T11:31:33.248Z,1017.89
2018-07-03T11:32:33.363Z,1017.9
2018-07-03T11:33:33.408Z,1017.86
2018-07-03T11:34:33.200Z,1017.89
2018-07-03T11:35:33.411Z,1017.9
2018-07-03T11:36:33.349Z,1017.91
2018-07-03T11:37:33.152Z,1017.86
2018-07-03T11:38:33.278Z,1017.83
2018-07-03T11:39:33.369Z,1017.86
2018-07-03T11:40:33.394Z,1017.87
2018-07-03T11:41:33.260Z,1017.83
2018-07-03T11:42:33.292Z,1017.83
2018-07-03T11:43:33.269Z,1017.79
2018-07-03T11:44:33.266Z,1017.82
2018-07-03T11:45:33.179Z,1017.77
2018-07-03T11:46:33.471Z,1017.81
2018-07-03T11:47:33.452Z,1017.74
2018-07-03T11:48:33.241Z,1017.72
2018-07-03T11:49:33.299Z,1017.72
2018-07-03T11:50:33.363Z,1017.77
2018-07-03T11:51:33.418Z,1017.75
2018-07-03T11:52:33.209Z,1017.7
2018-07-03T11:53:33.580Z,1017.73
2018-07-03T11:54:33.301Z,1017.68
2018-07-03T11:55:33.261Z,1017.66
2018-07-03T11:56:33.176Z,1017.65
2018-07-03T11:57:33.315Z,1017.69
2018-07-03T11:58:33.426Z,1017.61
2018-07-03T11:59:33.275Z,1017.62
2018-07-03T12:00:33.422Z,1017.59
2018-07-03T12:01:33.478Z,1017.65
2018-07-03T12:02:33.260Z,1017.64
2018-07-03T12:03:33.232Z,1017.6
2018-07-03T12:04:33.275Z,1017.61
2018-07-03T12:05:33.256Z,1017.64
2018-07-03T12:06:33.412Z,1017.6
2018-07-03T12:07:33.230Z,1017.61
2018-07-03T12:08:33.304Z,1017.62